sensor_id;sensor_type;location;lat;lon;timestamp;pressure;altitude;pressure_sealevel;temperature;humidity
30636;BME280;17400;52.392;9.750;2023-09-19T00:00:56;99950.38;;;18.62;100.00
30636;BME280;17400;52.392;9.750;2023-09-19T00:03:25;99948.44;;;18.62;100.00
30636;BME280;17400;52.392;9.750;2023-09-19T00:05:55;99955.84;;;18.57;100.00
30636;BME280;17400;52.392;9.750;2023-09-19T00:08:23;99956.41;;;18.59;100.00
30636;BME280;17400;52.392;9.750;2023-09-19T00:10:51;99966.22;;;18.55;100.00
30636;BME280;17400;52.392;9.750;2023-09-19T00:13:20;99958.84;;;18.55;100.00
30636;BME280;17400;52.392;9.750;2023-09-19T00:15:48;99960.22;;;18.53;100.00
30636;BME280;17400;52.392;9.750;2023-09-19T00:18:17;99957.44;;;18.42;100.00
30636;BME280;17400;52.392;9.750;2023-09-19T00:20:47;99952.75;;;18.38;100.00
30636;BME280;17400;52.392;9.750;2023-09-19T00:23:16;99950.00;;;18.33;100.00
30636;BME280;17400;52.392;9.750;2023-09-19T00:25:43;99957.91;;;18.24;100.00
30636;BME280;17400;52.392;9.750;2023-09-19T00:28:11;99946.94;;;18.24;100.00
30636;BME280;17400;52.392;9.750;2023-09-19T00:30:42;99949.97;;;18.27;100.00
30636;BME280;17400;52.392;9.750;2023-09-19T00:33:10;99946.97;;;18.29;100.00
30636;BME280;17400;52.392;9.750;2023-09-19T00:35:48;99952.16;;;18.30;100.00
30636;BME280;17400;52.392;9.750;2023-09-19T00:38:16;99947.75;;;18.24;100.00
30636;BME280;17400;52.392;9.750;2023-09-19T00:40:49;99954.34;;;18.23;100.00
30636;BME280;17400;52.392;9.750;2023-09-19T00:43:18;99951.88;;;18.22;100.00
30636;BME280;17400;52.392;9.750;2023-09-19T00:45:48;99961.72;;;18.23;100.00
30636;BME280;17400;52.392;9.750;2023-09-19T00:48:18;99961.44;;;18.19;100.00
30636;BME280;17400;52.392;9.750;2023-09-19T00:50:48;99960.63;;;18.24;100.00
30636;BME280;17400;52.392;9.750;2023-09-19T00:53:19;99971.06;;;18.22;100.00
30636;BME280;17400;52.392;9.750;2023-09-19T00:55:49;99979.78;;;18.19;100.00
30636;BME280;17400;52.392;9.750;2023-09-19T00:58:18;99978.41;;;18.16;100.00
30636;BME280;17400;52.392;9.750;2023-09-19T01:00:47;99978.63;;;18.09;100.00
30636;BME280;17400;52.392;9.750;2023-09-19T01:03:16;99987.13;;;18.08;100.00
30636;BME280;17400;52.392;9.750;2023-09-19T01:05:45;100003.84;;;18.11;100.00
30636;BME280;17400;52.392;9.750;2023-09-19T01:08:14;100001.63;;;18.08;100.00
30636;BME280;17400;52.392;9.750;2023-09-19T01:10:47;100003.00;;;18.11;100.00
30636;BME280;17400;52.392;9.750;2023-09-19T01:13:22;99997.81;;;18.09;100.00
30636;BME280;17400;52.392;9.750;2023-09-19T01:15:59;100010.69;;;18.09;100.00
30636;BME280;17400;52.392;9.750;2023-09-19T01:18:35;100013.47;;;18.14;100.00
30636;BME280;17400;52.392;9.750;2023-09-19T01:21:11;100012.63;;;18.13;100.00
30636;BME280;17400;52.392;9.750;2023-09-19T01:24:10;100007.69;;;18.10;100.00
30636;BME280;17400;52.392;9.750;2023-09-19T01:27:00;100018.09;;;18.13;100.00
30636;BME280;17400;52.392;9.750;2023-09-19T01:29:35;100018.41;;;18.17;100.00
30636;BME280;17400;52.392;9.750;2023-09-19T01:32:08;100020.88;;;18.19;100.00
30636;BME280;17400;52.392;9.750;2023-09-19T01:34:45;100023.84;;;18.12;100.00
30636;BME280;17400;52.392;9.750;2023-09-19T01:37:15;100019.41;;;18.06;100.00
30636;BME280;17400;52.392;9.750;2023-09-19T01:39:47;100028.47;;;18.06;100.00
30636;BME280;17400;52.392;9.750;2023-09-19T01:42:24;100032.03;;;18.07;100.00
30636;BME280;17400;52.392;9.750;2023-09-19T01:44:59;100030.66;;;18.09;100.00
30636;BME280;17400;52.392;9.750;2023-09-19T01:47:34;100037.50;;;18.07;100.00
30636;BME280;17400;52.392;9.750;2023-09-19T01:50:11;100036.72;;;18.11;100.00
30636;BME280;17400;52.392;9.750;2023-09-19T01:52:47;100048.81;;;18.15;100.00
30636;BME280;17400;52.392;9.750;2023-09-19T01:55:16;100052.09;;;18.18;100.00
30636;BME280;17400;52.392;9.750;2023-09-19T01:57:54;100040.53;;;18.10;100.00
30636;BME280;17400;52.392;9.750;2023-09-19T02:00:27;100047.16;;;18.14;100.00
30636;BME280;17400;52.392;9.750;2023-09-19T02:02:59;100035.06;;;18.10;100.00
30636;BME280;17400;52.392;9.750;2023-09-19T02:05:27;100044.88;;;18.01;100.00
30636;BME280;17400;52.392;9.750;2023-09-19T02:07:55;100031.47;;;18.05;100.00
30636;BME280;17400;52.392;9.750;2023-09-19T02:10:25;100048.19;;;18.08;100.00
30636;BME280;17400;52.392;9.750;2023-09-19T02:12:53;100047.94;;;18.15;100.00
30636;BME280;17400;52.392;9.750;2023-09-19T02:15:20;100054.47;;;18.04;100.00
30636;BME280;17400;52.392;9.750;2023-09-19T02:17:48;100056.97;;;18.10;100.00
30636;BME280;17400;52.392;9.750;2023-09-19T02:20:17;100055.31;;;18.09;100.00
30636;BME280;17400;52.392;9.750;2023-09-19T02:22:47;100055.94;;;18.17;100.00
30636;BME280;17400;52.392;9.750;2023-09-19T02:25:17;100057.56;;;18.18;100.00
30636;BME280;17400;52.392;9.750;2023-09-19T02:27:46;100067.41;;;18.13;100.00
30636;BME280;17400;52.392;9.750;2023-09-19T02:30:14;100074.75;;;18.08;100.00
30636;BME280;17400;52.392;9.750;2023-09-19T02:32:42;100077.16;;;17.99;100.00
30636;BME280;17400;52.392;9.750;2023-09-19T02:35:11;100073.88;;;17.97;100.00
30636;BME280;17400;52.392;9.750;2023-09-19T02:37:41;100081.50;;;17.95;100.00
30636;BME280;17400;52.392;9.750;2023-09-19T02:40:10;100073.56;;;17.93;100.00
30636;BME280;17400;52.392;9.750;2023-09-19T02:42:46;100074.88;;;17.91;100.00
30636;BME280;17400;52.392;9.750;2023-09-19T02:45:16;100065.28;;;17.88;100.00
30636;BME280;17400;52.392;9.750;2023-09-19T02:47:45;100065.81;;;17.85;100.00
30636;BME280;17400;52.392;9.750;2023-09-19T02:50:14;100075.34;;;17.82;100.00
30636;BME280;17400;52.392;9.750;2023-09-19T02:52:45;100068.22;;;17.81;100.00
30636;BME280;17400;52.392;9.750;2023-09-19T02:55:14;100077.78;;;17.79;100.00
30636;BME280;17400;52.392;9.750;2023-09-19T02:57:46;100069.63;;;17.84;100.00
30636;BME280;17400;52.392;9.750;2023-09-19T03:00:14;100070.44;;;17.85;100.00
30636;BME280;17400;52.392;9.750;2023-09-19T03:02:42;100074.81;;;17.86;100.00
30636;BME280;17400;52.392;9.750;2023-09-19T03:05:12;100074.25;;;17.78;100.00
30636;BME280;17400;52.392;9.750;2023-09-19T03:07:40;100080.22;;;17.75;100.00
30636;BME280;17400;52.392;9.750;2023-09-19T03:10:11;100080.47;;;17.74;100.00
30636;BME280;17400;52.392;9.750;2023-09-19T03:12:39;100082.66;;;17.72;100.00
30636;BME280;17400;52.392;9.750;2023-09-19T03:15:07;100078.81;;;17.68;100.00
30636;BME280;17400;52.392;9.750;2023-09-19T03:17:37;100094.38;;;17.67;100.00
30636;BME280;17400;52.392;9.750;2023-09-19T03:20:06;100087.56;;;17.70;100.00
30636;BME280;17400;52.392;9.750;2023-09-19T03:22:35;100102.84;;;17.65;100.00
30636;BME280;17400;52.392;9.750;2023-09-19T03:25:04;100097.97;;;17.68;100.00
30636;BME280;17400;52.392;9.750;2023-09-19T03:27:35;100105.81;;;17.59;100.00
30636;BME280;17400;52.392;9.750;2023-09-19T03:30:04;100105.81;;;17.59;100.00
30636;BME280;17400;52.392;9.750;2023-09-19T03:32:35;100109.13;;;17.61;100.00
30636;BME280;17400;52.392;9.750;2023-09-19T03:35:04;100106.63;;;17.59;100.00
30636;BME280;17400;52.392;9.750;2023-09-19T03:37:32;100111.81;;;17.56;100.00
30636;BME280;17400;52.392;9.750;2023-09-19T03:40:00;100112.94;;;17.60;100.00
30636;BME280;17400;52.392;9.750;2023-09-19T03:42:31;100124.38;;;17.57;100.00
30636;BME280;17400;52.392;9.750;2023-09-19T03:45:00;100121.09;;;17.55;100.00
30636;BME280;17400;52.392;9.750;2023-09-19T03:47:32;100115.63;;;17.55;100.00
30636;BME280;17400;52.392;9.750;2023-09-19T03:50:00;100119.44;;;17.54;100.00
30636;BME280;17400;52.392;9.750;2023-09-19T03:52:28;100120.50;;;17.53;100.00
30636;BME280;17400;52.392;9.750;2023-09-19T03:54:55;100121.09;;;17.55;100.00
30636;BME280;17400;52.392;9.750;2023-09-19T03:57:22;100122.28;;;17.64;100.00
30636;BME280;17400;52.392;9.750;2023-09-19T03:59:50;100117.94;;;17.68;100.00
30636;BME280;17400;52.392;9.750;2023-09-19T04:02:21;100107.59;;;17.75;100.00
30636;BME280;17400;52.392;9.750;2023-09-19T04:04:50;100111.97;;;17.76;100.00
30636;BME280;17400;52.392;9.750;2023-09-19T04:07:19;100109.81;;;17.78;100.00
30636;BME280;17400;52.392;9.750;2023-09-19T04:09:49;100108.44;;;17.76;100.00
30636;BME280;17400;52.392;9.750;2023-09-19T04:12:19;100113.06;;;17.75;100.00
30636;BME280;17400;52.392;9.750;2023-09-19T04:14:47;100115.78;;;17.75;100.00
30636;BME280;17400;52.392;9.750;2023-09-19T04:17:15;100127.00;;;17.74;100.00
30636;BME280;17400;52.392;9.750;2023-09-19T04:19:45;100128.41;;;17.76;100.00
30636;BME280;17400;52.392;9.750;2023-09-19T04:22:13;100134.31;;;17.63;100.00
30636;BME280;17400;52.392;9.750;2023-09-19T04:24:40;100135.53;;;17.50;100.00
30636;BME280;17400;52.392;9.750;2023-09-19T04:27:08;100140.66;;;17.41;100.00
30636;BME280;17400;52.392;9.750;2023-09-19T04:29:38;100140.41;;;17.43;100.00
30636;BME280;17400;52.392;9.750;2023-09-19T04:32:08;100131.06;;;17.39;100.00
30636;BME280;17400;52.392;9.750;2023-09-19T04:34:36;100129.34;;;17.32;100.00
30636;BME280;17400;52.392;9.750;2023-09-19T04:37:06;100138.13;;;17.35;100.00
30636;BME280;17400;52.392;9.750;2023-09-19T04:39:34;100150.97;;;17.34;100.00
30636;BME280;17400;52.392;9.750;2023-09-19T04:42:02;100150.66;;;17.30;100.00
30636;BME280;17400;52.392;9.750;2023-09-19T04:44:30;100156.88;;;17.26;100.00
30636;BME280;17400;52.392;9.750;2023-09-19T04:46:58;100157.41;;;17.23;100.00
30636;BME280;17400;52.392;9.750;2023-09-19T04:49:27;100159.03;;;17.24;100.00
30636;BME280;17400;52.392;9.750;2023-09-19T04:51:54;100167.81;;;17.26;100.00
30636;BME280;17400;52.392;9.750;2023-09-19T04:54:24;100176.81;;;17.21;100.00
30636;BME280;17400;52.392;9.750;2023-09-19T04:56:51;100169.94;;;17.19;100.00
30636;BME280;17400;52.392;9.750;2023-09-19T04:59:19;100174.31;;;17.20;100.00
30636;BME280;17400;52.392;9.750;2023-09-19T05:01:47;100174.31;;;17.20;100.00
30636;BME280;17400;52.392;9.750;2023-09-19T05:04:17;100184.69;;;17.18;100.00
30636;BME280;17400;52.392;9.750;2023-09-19T05:06:44;100178.97;;;17.19;100.00
30636;BME280;17400;52.392;9.750;2023-09-19T05:09:12;100178.16;;;17.19;100.00
30636;BME280;17400;52.392;9.750;2023-09-19T05:11:43;100179.47;;;17.16;100.00
30636;BME280;17400;52.392;9.750;2023-09-19T05:14:11;100179.22;;;17.18;100.00
30636;BME280;17400;52.392;9.750;2023-09-19T05:16:39;100174.25;;;17.14;100.00
30636;BME280;17400;52.392;9.750;2023-09-19T05:19:07;100181.38;;;17.15;100.00
30636;BME280;17400;52.392;9.750;2023-09-19T05:21:38;100176.69;;;17.11;100.00
30636;BME280;17400;52.392;9.750;2023-09-19T05:24:06;100188.38;;;17.06;100.00
30636;BME280;17400;52.392;9.750;2023-09-19T05:26:37;100180.50;;;17.10;100.00
30636;BME280;17400;52.392;9.750;2023-09-19T05:29:06;100206.34;;;17.02;100.00
30636;BME280;17400;52.392;9.750;2023-09-19T05:31:34;100200.56;;;16.98;100.00
30636;BME280;17400;52.392;9.750;2023-09-19T05:34:08;100195.41;;;17.02;100.00
30636;BME280;17400;52.392;9.750;2023-09-19T05:36:36;100208.28;;;17.02;100.00
30636;BME280;17400;52.392;9.750;2023-09-19T05:39:06;100211.81;;;17.02;100.00
30636;BME280;17400;52.392;9.750;2023-09-19T05:41:35;100205.03;;;16.88;100.00
30636;BME280;17400;52.392;9.750;2023-09-19T05:44:07;100214.16;;;16.93;100.00
30636;BME280;17400;52.392;9.750;2023-09-19T05:46:35;100210.03;;;16.91;100.00
30636;BME280;17400;52.392;9.750;2023-09-19T05:49:04;100220.47;;;16.94;100.00
30636;BME280;17400;52.392;9.750;2023-09-19T05:51:31;100228.22;;;17.02;100.00
30636;BME280;17400;52.392;9.750;2023-09-19T05:53:59;100254.31;;;17.10;100.00
30636;BME280;17400;52.392;9.750;2023-09-19T05:56:27;100258.38;;;17.07;100.00
30636;BME280;17400;52.392;9.750;2023-09-19T05:58:55;100261.03;;;17.02;100.00
30636;BME280;17400;52.392;9.750;2023-09-19T06:01:24;100274.22;;;17.05;100.00
30636;BME280;17400;52.392;9.750;2023-09-19T06:03:52;100271.72;;;17.04;100.00
30636;BME280;17400;52.392;9.750;2023-09-19T06:06:20;100278.31;;;17.03;100.00
30636;BME280;17400;52.392;9.750;2023-09-19T06:08:50;100263.78;;;17.02;100.00
30636;BME280;17400;52.392;9.750;2023-09-19T06:11:18;100269.59;;;17.06;100.00
30636;BME280;17400;52.392;9.750;2023-09-19T06:13:47;100281.84;;;17.03;100.00
30636;BME280;17400;52.392;9.750;2023-09-19T06:16:15;100275.13;;;17.11;100.00
30636;BME280;17400;52.392;9.750;2023-09-19T06:18:44;100281.75;;;17.15;100.00
30636;BME280;17400;52.392;9.750;2023-09-19T06:21:12;100279.56;;;17.17;100.00
30636;BME280;17400;52.392;9.750;2023-09-19T06:23:39;100278.56;;;17.23;100.00
30636;BME280;17400;52.392;9.750;2023-09-19T06:26:08;100283.72;;;17.20;100.00
30636;BME280;17400;52.392;9.750;2023-09-19T06:28:35;100273.38;;;17.22;100.00
30636;BME280;17400;52.392;9.750;2023-09-19T06:31:03;100267.38;;;17.25;100.00
30636;BME280;17400;52.392;9.750;2023-09-19T06:33:36;100267.13;;;17.26;100.00
30636;BME280;17400;52.392;9.750;2023-09-19T06:36:08;100265.22;;;17.27;100.00
30636;BME280;17400;52.392;9.750;2023-09-19T06:38:35;100259.50;;;17.28;100.00
30636;BME280;17400;52.392;9.750;2023-09-19T06:41:05;100269.75;;;17.38;100.00
30636;BME280;17400;52.392;9.750;2023-09-19T06:43:34;100261.66;;;17.48;100.00
30636;BME280;17400;52.392;9.750;2023-09-19T06:46:02;100265.56;;;17.53;100.00
30636;BME280;17400;52.392;9.750;2023-09-19T06:48:30;100268.69;;;17.61;100.00
30636;BME280;17400;52.392;9.750;2023-09-19T06:51:00;100252.25;;;17.61;99.63
30636;BME280;17400;52.392;9.750;2023-09-19T06:53:32;100254.47;;;17.64;99.11
30636;BME280;17400;52.392;9.750;2023-09-19T06:56:01;100265.16;;;17.66;98.23
30636;BME280;17400;52.392;9.750;2023-09-19T06:58:29;100273.97;;;17.68;97.94
30636;BME280;17400;52.392;9.750;2023-09-19T07:00:58;100271.03;;;17.75;97.12
30636;BME280;17400;52.392;9.750;2023-09-19T07:03:26;100282.91;;;17.86;97.83
30636;BME280;17400;52.392;9.750;2023-09-19T07:05:56;100287.47;;;17.97;96.12
30636;BME280;17400;52.392;9.750;2023-09-19T07:08:25;100303.38;;;18.00;94.81
30636;BME280;17400;52.392;9.750;2023-09-19T07:10:56;100286.41;;;18.03;92.94
30636;BME280;17400;52.392;9.750;2023-09-19T07:13:23;100286.53;;;18.13;91.50
30636;BME280;17400;52.392;9.750;2023-09-19T07:15:52;100289.84;;;18.15;91.27
30636;BME280;17400;52.392;9.750;2023-09-19T07:18:21;100288.25;;;18.20;89.94
30636;BME280;17400;52.392;9.750;2023-09-19T07:20:49;100282.50;;;18.21;88.51
30636;BME280;17400;52.392;9.750;2023-09-19T07:23:17;100283.91;;;18.24;88.56
30636;BME280;17400;52.392;9.750;2023-09-19T07:25:47;100293.00;;;18.29;88.65
30636;BME280;17400;52.392;9.750;2023-09-19T07:28:17;100313.63;;;18.37;86.62
30636;BME280;17400;52.392;9.750;2023-09-19T07:30:45;100314.25;;;18.44;86.30
30636;BME280;17400;52.392;9.750;2023-09-19T07:33:14;100303.25;;;18.39;85.63
30636;BME280;17400;52.392;9.750;2023-09-19T07:35:45;100303.75;;;18.36;85.12
30636;BME280;17400;52.392;9.750;2023-09-19T07:38:14;100305.50;;;18.47;83.69
30636;BME280;17400;52.392;9.750;2023-09-19T07:40:41;100302.16;;;18.40;83.61
30636;BME280;17400;52.392;9.750;2023-09-19T07:43:10;100317.66;;;18.57;83.96
30636;BME280;17400;52.392;9.750;2023-09-19T07:45:40;100320.66;;;18.55;82.59
30636;BME280;17400;52.392;9.750;2023-09-19T07:48:08;100320.72;;;18.60;81.94
30636;BME280;17400;52.392;9.750;2023-09-19T07:50:41;100326.13;;;18.55;81.94
30636;BME280;17400;52.392;9.750;2023-09-19T07:53:10;100325.81;;;18.52;82.51
30636;BME280;17400;52.392;9.750;2023-09-19T07:55:40;100333.50;;;18.55;82.58
30636;BME280;17400;52.392;9.750;2023-09-19T07:58:08;100331.63;;;18.55;83.09
30636;BME280;17400;52.392;9.750;2023-09-19T08:00:35;100333.78;;;18.53;82.24
30636;BME280;17400;52.392;9.750;2023-09-19T08:03:05;100322.81;;;18.53;82.20
30636;BME280;17400;52.392;9.750;2023-09-19T08:05:41;100325.63;;;18.58;81.07
30636;BME280;17400;52.392;9.750;2023-09-19T08:08:10;100327.97;;;18.77;80.99
30636;BME280;17400;52.392;9.750;2023-09-19T08:10:40;100323.00;;;18.74;79.51
30636;BME280;17400;52.392;9.750;2023-09-19T08:13:09;100321.25;;;18.62;79.08
30636;BME280;17400;52.392;9.750;2023-09-19T08:15:43;100327.88;;;18.67;79.64
30636;BME280;17400;52.392;9.750;2023-09-19T08:18:13;100326.13;;;18.55;79.01
30636;BME280;17400;52.392;9.750;2023-09-19T08:20:41;100330.38;;;18.68;80.10
30636;BME280;17400;52.392;9.750;2023-09-19T08:23:12;100335.28;;;18.66;79.06
30636;BME280;17400;52.392;9.750;2023-09-19T08:25:40;100336.94;;;18.67;79.56
30636;BME280;17400;52.392;9.750;2023-09-19T08:28:08;100339.53;;;18.52;78.52
30636;BME280;17400;52.392;9.750;2023-09-19T08:30:38;100334.88;;;18.52;79.36
30636;BME280;17400;52.392;9.750;2023-09-19T08:33:07;100328.00;;;18.50;77.73
30636;BME280;17400;52.392;9.750;2023-09-19T08:35:36;100325.63;;;18.58;77.01
30636;BME280;17400;52.392;9.750;2023-09-19T08:38:06;100329.03;;;18.71;76.29
30636;BME280;17400;52.392;9.750;2023-09-19T08:40:36;100334.78;;;18.74;76.77
30636;BME280;17400;52.392;9.750;2023-09-19T08:43:06;100327.66;;;18.73;75.74
30636;BME280;17400;52.392;9.750;2023-09-19T08:45:35;100324.63;;;18.70;74.94
30636;BME280;17400;52.392;9.750;2023-09-19T08:48:17;100333.13;;;18.73;76.61
30636;BME280;17400;52.392;9.750;2023-09-19T08:50:52;100347.44;;;18.75;75.98
30636;BME280;17400;52.392;9.750;2023-09-19T08:53:27;100333.22;;;18.84;76.61
30636;BME280;17400;52.392;9.750;2023-09-19T08:56:00;100336.25;;;18.82;75.67
30636;BME280;17400;52.392;9.750;2023-09-19T08:58:32;100339.25;;;18.80;76.79
30636;BME280;17400;52.392;9.750;2023-09-19T09:01:02;100337.03;;;18.77;75.03
30636;BME280;17400;52.392;9.750;2023-09-19T09:03:34;100339.50;;;18.79;75.79
30636;BME280;17400;52.392;9.750;2023-09-19T09:06:05;100332.09;;;18.79;76.36
30636;BME280;17400;52.392;9.750;2023-09-19T09:08:34;100344.06;;;18.95;76.68
30636;BME280;17400;52.392;9.750;2023-09-19T09:11:02;100339.22;;;19.08;76.42
30636;BME280;17400;52.392;9.750;2023-09-19T09:13:35;100344.22;;;19.16;74.55
30636;BME280;17400;52.392;9.750;2023-09-19T09:16:04;100347.78;;;19.17;73.63
30636;BME280;17400;52.392;9.750;2023-09-19T09:18:32;100343.38;;;19.15;75.05
30636;BME280;17400;52.392;9.750;2023-09-19T09:21:00;100345.78;;;19.07;75.40
30636;BME280;17400;52.392;9.750;2023-09-19T09:23:29;100360.47;;;18.90;74.92
30636;BME280;17400;52.392;9.750;2023-09-19T09:25:59;100345.41;;;18.93;76.10
30636;BME280;17400;52.392;9.750;2023-09-19T09:28:30;100346.56;;;19.02;75.88
30636;BME280;17400;52.392;9.750;2023-09-19T09:31:00;100347.69;;;19.06;76.66
30636;BME280;17400;52.392;9.750;2023-09-19T09:33:29;100341.16;;;19.12;76.49
30636;BME280;17400;52.392;9.750;2023-09-19T09:35:58;100352.44;;;19.16;76.01
30636;BME280;17400;52.392;9.750;2023-09-19T09:38:42;100354.38;;;19.21;76.01
30636;BME280;17400;52.392;9.750;2023-09-19T09:41:12;100352.38;;;19.06;74.16
30636;BME280;17400;52.392;9.750;2023-09-19T09:43:42;100347.22;;;19.14;75.60
30636;BME280;17400;52.392;9.750;2023-09-19T09:46:14;100349.22;;;19.24;75.19
30636;BME280;17400;52.392;9.750;2023-09-19T09:49:06;100359.38;;;19.24;75.22
30636;BME280;17400;52.392;9.750;2023-09-19T09:51:59;100351.69;;;19.26;72.88
30636;BME280;17400;52.392;9.750;2023-09-19T09:54:36;100359.59;;;19.17;71.46
30636;BME280;17400;52.392;9.750;2023-09-19T09:57:06;100359.03;;;19.15;71.69
30636;BME280;17400;52.392;9.750;2023-09-19T09:59:45;100358.06;;;18.99;70.33
30636;BME280;17400;52.392;9.750;2023-09-19T10:02:14;100362.00;;;19.08;70.59
30636;BME280;17400;52.392;9.750;2023-09-19T10:04:48;100366.16;;;19.16;69.82
30636;BME280;17400;52.392;9.750;2023-09-19T10:07:28;100361.50;;;19.17;68.58
30636;BME280;17400;52.392;9.750;2023-09-19T10:10:01;100368.75;;;19.33;68.83
30636;BME280;17400;52.392;9.750;2023-09-19T10:12:44;100355.84;;;19.34;68.96
30636;BME280;17400;52.392;9.750;2023-09-19T10:15:16;100373.41;;;19.33;69.47
30636;BME280;17400;52.392;9.750;2023-09-19T10:17:47;100376.50;;;19.41;68.71
30636;BME280;17400;52.392;9.750;2023-09-19T10:20:16;100363.03;;;19.40;68.43
30636;BME280;17400;52.392;9.750;2023-09-19T10:23:01;100366.09;;;19.48;69.18
30636;BME280;17400;52.392;9.750;2023-09-19T10:25:38;100362.88;;;19.57;68.29
30636;BME280;17400;52.392;9.750;2023-09-19T10:28:08;100362.81;;;19.46;68.02
30636;BME280;17400;52.392;9.750;2023-09-19T10:30:41;100354.84;;;19.45;66.71
30636;BME280;17400;52.392;9.750;2023-09-19T10:33:11;100364.19;;;19.49;68.41
30636;BME280;17400;52.392;9.750;2023-09-19T10:35:42;100363.84;;;19.40;68.29
30636;BME280;17400;52.392;9.750;2023-09-19T10:38:11;100349.59;;;19.38;67.44
30636;BME280;17400;52.392;9.750;2023-09-19T10:40:44;100346.22;;;19.31;66.53
30636;BME280;17400;52.392;9.750;2023-09-19T10:43:15;100358.59;;;19.34;66.97
30636;BME280;17400;52.392;9.750;2023-09-19T10:45:46;100355.06;;;19.43;66.48
30636;BME280;17400;52.392;9.750;2023-09-19T10:48:16;100355.41;;;19.52;66.13
30636;BME280;17400;52.392;9.750;2023-09-19T10:50:49;100355.41;;;19.52;67.18
30636;BME280;17400;52.392;9.750;2023-09-19T10:53:18;100360.72;;;19.69;67.66
30636;BME280;17400;52.392;9.750;2023-09-19T10:55:51;100359.06;;;19.68;64.89
30636;BME280;17400;52.392;9.750;2023-09-19T10:58:26;100375.88;;;19.77;65.93
30636;BME280;17400;52.392;9.750;2023-09-19T11:00:56;100368.09;;;19.58;64.44
30636;BME280;17400;52.392;9.750;2023-09-19T11:03:28;100364.53;;;19.63;64.10
30636;BME280;17400;52.392;9.750;2023-09-19T11:06:03;100357.94;;;19.64;64.25
30636;BME280;17400;52.392;9.750;2023-09-19T11:08:53;100364.56;;;19.68;64.01
30636;BME280;17400;52.392;9.750;2023-09-19T11:11:41;100362.38;;;19.70;62.86
30636;BME280;17400;52.392;9.750;2023-09-19T11:14:28;100359.38;;;19.72;62.16
30636;BME280;17400;52.392;9.750;2023-09-19T11:17:30;100364.97;;;19.92;62.97
30636;BME280;17400;52.392;9.750;2023-09-19T11:20:20;100367.47;;;19.94;61.41
30636;BME280;17400;52.392;9.750;2023-09-19T11:23:18;100357.59;;;19.98;60.36
30636;BME280;17400;52.392;9.750;2023-09-19T11:25:49;100345.28;;;20.11;60.06
30636;BME280;17400;52.392;9.750;2023-09-19T11:28:33;100353.50;;;20.06;59.65
30636;BME280;17400;52.392;9.750;2023-09-19T11:34:38;100347.44;;;19.98;59.93
30636;BME280;17400;52.392;9.750;2023-09-19T11:40:11;100345.28;;;20.11;60.52
30636;BME280;17400;52.392;9.750;2023-09-19T11:42:43;100348.31;;;20.14;60.87
30636;BME280;17400;52.392;9.750;2023-09-19T11:48:26;100343.91;;;20.19;57.99
30636;BME280;17400;52.392;9.750;2023-09-19T11:50:54;100344.19;;;20.17;59.04
30636;BME280;17400;52.392;9.750;2023-09-19T11:53:24;100340.41;;;20.39;57.84
30636;BME280;17400;52.392;9.750;2023-09-19T11:55:58;100353.63;;;20.47;58.77
30636;BME280;17400;52.392;9.750;2023-09-19T11:58:28;100346.19;;;20.47;55.20
30636;BME280;17400;52.392;9.750;2023-09-19T12:00:58;100352.50;;;20.43;56.62
30636;BME280;17400;52.392;9.750;2023-09-19T12:03:32;100348.38;;;20.40;56.64
30636;BME280;17400;52.392;9.750;2023-09-19T12:06:10;100349.50;;;20.55;57.70
30636;BME280;17400;52.392;9.750;2023-09-19T12:08:41;100344.56;;;20.62;57.47
30636;BME280;17400;52.392;9.750;2023-09-19T12:11:14;100340.16;;;20.66;58.35
30636;BME280;17400;52.392;9.750;2023-09-19T12:13:43;100342.13;;;20.71;58.04
30636;BME280;17400;52.392;9.750;2023-09-19T12:16:16;100340.13;;;20.56;57.97
30636;BME280;17400;52.392;9.750;2023-09-19T12:18:46;100339.88;;;20.52;57.71
30636;BME280;17400;52.392;9.750;2023-09-19T12:21:25;100351.41;;;20.49;57.33
30636;BME280;17400;52.392;9.750;2023-09-19T12:24:11;100344.56;;;20.67;58.15
30636;BME280;17400;52.392;9.750;2023-09-19T12:26:41;100342.09;;;20.66;59.51
30636;BME280;17400;52.392;9.750;2023-09-19T12:29:14;100347.88;;;20.64;59.67
30636;BME280;17400;52.392;9.750;2023-09-19T12:31:51;100350.06;;;20.62;60.58
30636;BME280;17400;52.392;9.750;2023-09-19T12:34:24;100342.63;;;20.52;59.91
30636;BME280;17400;52.392;9.750;2023-09-19T12:37:07;100349.47;;;20.44;59.73
30636;BME280;17400;52.392;9.750;2023-09-19T12:39:49;100341.78;;;20.57;60.12
30636;BME280;17400;52.392;9.750;2023-09-19T12:42:19;100347.88;;;20.74;59.37
30636;BME280;17400;52.392;9.750;2023-09-19T12:44:48;100346.78;;;20.80;57.93
30636;BME280;17400;52.392;9.750;2023-09-19T12:47:18;100335.50;;;20.67;57.44
30636;BME280;17400;52.392;9.750;2023-09-19T12:50:07;100338.25;;;20.82;57.27
30636;BME280;17400;52.392;9.750;2023-09-19T12:52:41;100339.63;;;20.79;58.03
30636;BME280;17400;52.392;9.750;2023-09-19T12:55:20;100335.78;;;20.86;56.74
30636;BME280;17400;52.392;9.750;2023-09-19T12:57:56;100329.72;;;20.84;57.35
30636;BME280;17400;52.392;9.750;2023-09-19T13:00:32;100323.69;;;20.76;57.43
30636;BME280;17400;52.392;9.750;2023-09-19T13:03:15;100326.97;;;20.63;57.98
30636;BME280;17400;52.392;9.750;2023-09-19T13:05:49;100329.75;;;20.73;58.78
30636;BME280;17400;52.392;9.750;2023-09-19T13:08:21;100323.13;;;20.79;58.61
30636;BME280;17400;52.392;9.750;2023-09-19T13:11:08;100312.41;;;20.88;55.72
30636;BME280;17400;52.392;9.750;2023-09-19T13:13:38;100322.31;;;21.00;54.89
30636;BME280;17400;52.392;9.750;2023-09-19T13:16:08;100314.03;;;21.05;54.28